Irene — MCQW — position and weather

sailwx.info

Track history (hours):
 
Tides and Currents Weather Stations Pressure Air Temp Water Temp Dewpoint Dewpoint Depression Visibility Wind Speed Wind Dir Waves Ship Positions

Irene

Last reported at 2018-Aug-02 11:31 UTC. Time now 2018-Aug-14 07:05 UTC.
Position N 50°31' W 005°16'.
Warning: this ship's position is 11 days out of date.

Length 34 m.

Type: Sailing vessel. MMSI: 235085663.

Date/timePositionNaut miles runAvg speedWind from/ knotsBaromVisibWave heightAir tempDewpointWater temp
2018-Aug-02 11:31N 50°31' W 005°16'0 5.0
2018-Aug-02 11:29N 50°31' W 005°16'2 4.9
2018-Aug-02 11:00N 50°33' W 005°14'21 2.7
2018-Aug-02 03:18N 50°45' W 004°47'1 3.0
2018-Aug-02 02:57N 50°46' W 004°46'3 3.4
2018-Aug-02 02:01N 50°48' W 004°43'  
2018-Jul-30 09:58N 51°30' W 002°46'2 5.3
2018-Jul-30 09:31N 51°30' W 002°42'3 4.5
2018-Jul-30 08:56N 51°28' W 002°39'  
Track history (hours):
 
Tides and Currents Weather Stations Pressure Air Temp Water Temp Dewpoint Dewpoint Depression Visibility Wind Speed Wind Dir Waves Ship Positions

Irene

Last reported at 2018-Aug-02 11:31 UTC. Time now 2018-Aug-14 07:05 UTC.
Position N 50°31' W 005°16'.
Warning: this ship's position is 11 days out of date.

Length 34 m.

Type: Sailing vessel. MMSI: 235085663.

Date/timePositionNaut miles runAvg speedWind from/ knotsBaromVisibWave heightAir tempDewpointWater temp
2018-Aug-02 11:31N 50°31' W 005°16'0 5.0
2018-Aug-02 11:29N 50°31' W 005°16'2 4.9
2018-Aug-02 11:00N 50°33' W 005°14'21 2.7
2018-Aug-02 03:18N 50°45' W 004°47'1 3.0
2018-Aug-02 02:57N 50°46' W 004°46'3 3.4
2018-Aug-02 02:01N 50°48' W 004°43'  
2018-Jul-30 09:58N 51°30' W 002°46'2 5.3
2018-Jul-30 09:31N 51°30' W 002°42'3 4.5
2018-Jul-30 08:56N 51°28' W 002°39'  

Dump ship's entire track history